sensor_id;sensor_type;location;lat;lon;timestamp;pressure;altitude;pressure_sealevel;temperature;humidity
50636;BME280;36598;46.054;11.130;2022-08-21T00:00:24;98993.47;;;20.63;60.57
50636;BME280;36598;46.054;11.130;2022-08-21T00:02:51;98989.13;;;20.33;61.13
50636;BME280;36598;46.054;11.130;2022-08-21T00:05:17;98989.13;;;20.47;60.52
50636;BME280;36598;46.054;11.130;2022-08-21T00:07:43;98992.22;;;20.64;59.23
50636;BME280;36598;46.054;11.130;2022-08-21T00:10:08;98995.16;;;20.75;58.63
50636;BME280;36598;46.054;11.130;2022-08-21T00:12:33;98993.00;;;20.50;59.48
50636;BME280;36598;46.054;11.130;2022-08-21T00:14:59;98995.69;;;20.59;59.34
50636;BME280;36598;46.054;11.130;2022-08-21T00:17:24;98989.91;;;20.48;59.66
50636;BME280;36598;46.054;11.130;2022-08-21T00:19:49;98991.16;;;20.32;60.54
50636;BME280;36598;46.054;11.130;2022-08-21T00:22:15;98990.59;;;20.43;60.21
50636;BME280;36598;46.054;11.130;2022-08-21T00:24:40;98990.59;;;20.43;60.31
50636;BME280;36598;46.054;11.130;2022-08-21T00:27:05;98991.75;;;20.36;59.88
50636;BME280;36598;46.054;11.130;2022-08-21T00:29:30;98987.59;;;20.32;59.56
50636;BME280;36598;46.054;11.130;2022-08-21T00:34:21;98992.06;;;20.23;60.66
50636;BME280;36598;46.054;11.130;2022-08-21T00:36:46;98987.28;;;20.30;60.02
50636;BME280;36598;46.054;11.130;2022-08-21T00:39:11;98992.41;;;20.46;59.31
50636;BME280;36598;46.054;11.130;2022-08-21T00:41:37;98984.31;;;20.68;58.38
50636;BME280;36598;46.054;11.130;2022-08-21T00:44:04;98986.25;;;20.27;59.49
50636;BME280;36598;46.054;11.130;2022-08-21T00:46:29;98982.56;;;20.06;60.93
50636;BME280;36598;46.054;11.130;2022-08-21T00:48:55;98971.63;;;20.23;60.62
50636;BME280;36598;46.054;11.130;2022-08-21T00:51:22;98982.66;;;20.26;61.00
50636;BME280;36598;46.054;11.130;2022-08-21T00:53:58;98971.34;;;20.06;62.13
50636;BME280;36598;46.054;11.130;2022-08-21T00:56:24;98962.91;;;20.06;61.69
50636;BME280;36598;46.054;11.130;2022-08-21T00:58:50;98975.97;;;20.24;60.84
50636;BME280;36598;46.054;11.130;2022-08-21T01:01:16;98962.69;;;20.24;61.19
50636;BME280;36598;46.054;11.130;2022-08-21T01:03:42;98966.38;;;20.31;60.47
50636;BME280;36598;46.054;11.130;2022-08-21T01:06:08;98962.31;;;20.32;60.53
50636;BME280;36598;46.054;11.130;2022-08-21T01:08:34;98964.19;;;20.05;61.38
50636;BME280;36598;46.054;11.130;2022-08-21T01:10:59;98969.38;;;20.27;60.74
50636;BME280;36598;46.054;11.130;2022-08-21T01:13:26;98965.88;;;20.32;60.51
50636;BME280;36598;46.054;11.130;2022-08-21T01:15:53;98973.75;;;20.13;60.94
50636;BME280;36598;46.054;11.130;2022-08-21T01:18:19;98965.03;;;20.26;60.99
50636;BME280;36598;46.054;11.130;2022-08-21T01:20:56;98959.63;;;20.08;61.05
50636;BME280;36598;46.054;11.130;2022-08-21T01:23:21;98963.88;;;20.03;60.76
50636;BME280;36598;46.054;11.130;2022-08-21T01:25:47;98961.56;;;20.01;60.79
50636;BME280;36598;46.054;11.130;2022-08-21T01:28:13;98958.47;;;20.14;60.33
50636;BME280;36598;46.054;11.130;2022-08-21T01:30:39;98961.25;;;20.14;59.93
50636;BME280;36598;46.054;11.130;2022-08-21T01:33:05;98953.88;;;20.32;58.67
50636;BME280;36598;46.054;11.130;2022-08-21T01:35:30;98961.25;;;20.14;58.27
50636;BME280;36598;46.054;11.130;2022-08-21T01:37:56;98957.69;;;20.14;58.55
50636;BME280;36598;46.054;11.130;2022-08-21T01:40:21;98963.56;;;20.16;58.34
50636;BME280;36598;46.054;11.130;2022-08-21T01:42:46;98954.84;;;20.29;58.53
50636;BME280;36598;46.054;11.130;2022-08-21T01:45:12;98958.81;;;20.37;58.20
50636;BME280;36598;46.054;11.130;2022-08-21T01:47:38;98955.09;;;20.45;58.12
50636;BME280;36598;46.054;11.130;2022-08-21T01:50:04;98962.63;;;20.19;58.32
50636;BME280;36598;46.054;11.130;2022-08-21T01:52:30;98955.53;;;20.23;58.61
50636;BME280;36598;46.054;11.130;2022-08-21T01:54:55;98957.66;;;20.29;59.13
50636;BME280;36598;46.054;11.130;2022-08-21T01:57:20;98963.13;;;20.17;59.57
50636;BME280;36598;46.054;11.130;2022-08-21T01:59:46;98962.13;;;20.20;59.22
50636;BME280;36598;46.054;11.130;2022-08-21T02:02:11;98959.41;;;20.11;59.72
50636;BME280;36598;46.054;11.130;2022-08-21T02:04:36;98960.38;;;20.23;58.98
50636;BME280;36598;46.054;11.130;2022-08-21T02:07:02;98963.69;;;20.07;59.65
50636;BME280;36598;46.054;11.130;2022-08-21T02:09:28;98960.50;;;19.99;60.07
50636;BME280;36598;46.054;11.130;2022-08-21T02:11:53;98954.00;;;20.22;59.63
50636;BME280;36598;46.054;11.130;2022-08-21T02:14:19;98955.56;;;19.94;59.57
50636;BME280;36598;46.054;11.130;2022-08-21T02:16:45;98955.25;;;20.07;60.16
50636;BME280;36598;46.054;11.130;2022-08-21T02:19:12;98957.28;;;20.06;59.34
50636;BME280;36598;46.054;11.130;2022-08-21T02:21:38;98958.66;;;19.96;59.73
50636;BME280;36598;46.054;11.130;2022-08-21T02:24:04;98957.91;;;19.66;60.63
50636;BME280;36598;46.054;11.130;2022-08-21T02:26:29;98961.66;;;19.77;60.10
50636;BME280;36598;46.054;11.130;2022-08-21T02:28:55;98964.06;;;19.99;59.70
50636;BME280;36598;46.054;11.130;2022-08-21T02:31:20;98964.28;;;19.96;59.53
50636;BME280;36598;46.054;11.130;2022-08-21T02:33:45;98958.25;;;20.03;59.55
50636;BME280;36598;46.054;11.130;2022-08-21T02:36:11;98957.00;;;20.04;59.36
50636;BME280;36598;46.054;11.130;2022-08-21T02:38:37;98960.22;;;19.97;58.93
50636;BME280;36598;46.054;11.130;2022-08-21T02:41:11;98955.56;;;19.79;59.37
50636;BME280;36598;46.054;11.130;2022-08-21T02:43:36;98955.00;;;20.05;58.72
50636;BME280;36598;46.054;11.130;2022-08-21T02:46:03;98958.94;;;20.13;58.38
50636;BME280;36598;46.054;11.130;2022-08-21T02:48:30;98954.03;;;19.93;58.58
50636;BME280;36598;46.054;11.130;2022-08-21T02:50:57;98963.88;;;20.18;58.17
50636;BME280;36598;46.054;11.130;2022-08-21T02:53:23;98955.34;;;20.12;58.39
50636;BME280;36598;46.054;11.130;2022-08-21T02:55:49;98964.06;;;20.14;58.87
50636;BME280;36598;46.054;11.130;2022-08-21T02:58:16;98964.94;;;20.06;59.09
50636;BME280;36598;46.054;11.130;2022-08-21T03:00:42;98967.75;;;20.06;59.41
50636;BME280;36598;46.054;11.130;2022-08-21T03:03:08;98963.31;;;20.14;59.34
50636;BME280;36598;46.054;11.130;2022-08-21T03:05:34;98967.56;;;20.09;59.68
50636;BME280;36598;46.054;11.130;2022-08-21T03:08:02;98971.44;;;20.12;59.74
50636;BME280;36598;46.054;11.130;2022-08-21T03:10:28;98974.16;;;20.06;59.85
50636;BME280;36598;46.054;11.130;2022-08-21T03:12:54;98974.53;;;19.99;60.04
50636;BME280;36598;46.054;11.130;2022-08-21T03:15:20;98970.84;;;19.63;61.08
50636;BME280;36598;46.054;11.130;2022-08-21T03:17:46;98977.84;;;19.97;59.97
50636;BME280;36598;46.054;11.130;2022-08-21T03:20:13;98979.66;;;19.86;59.49
50636;BME280;36598;46.054;11.130;2022-08-21T03:22:39;98970.84;;;19.63;60.55
50636;BME280;36598;46.054;11.130;2022-08-21T03:25:04;98975.41;;;19.75;60.57
50636;BME280;36598;46.054;11.130;2022-08-21T03:27:30;98983.53;;;19.73;60.03
50636;BME280;36598;46.054;11.130;2022-08-21T03:29:55;98982.22;;;19.45;61.34
50636;BME280;36598;46.054;11.130;2022-08-21T03:32:21;98978.03;;;19.79;60.11
50636;BME280;36598;46.054;11.130;2022-08-21T03:34:46;98976.09;;;19.70;60.28
50636;BME280;36598;46.054;11.130;2022-08-21T03:37:12;98977.47;;;19.51;60.21
50636;BME280;36598;46.054;11.130;2022-08-21T03:39:37;98976.00;;;19.41;60.49
50636;BME280;36598;46.054;11.130;2022-08-21T03:42:02;98980.59;;;19.53;59.87
50636;BME280;36598;46.054;11.130;2022-08-21T03:44:28;98970.59;;;19.52;60.09
50636;BME280;36598;46.054;11.130;2022-08-21T03:46:54;98972.56;;;19.61;60.01
50636;BME280;36598;46.054;11.130;2022-08-21T03:49:19;98970.47;;;19.70;59.77
50636;BME280;36598;46.054;11.130;2022-08-21T03:51:44;98961.28;;;19.70;59.71
50636;BME280;36598;46.054;11.130;2022-08-21T03:54:10;98973.78;;;19.84;59.28
50636;BME280;36598;46.054;11.130;2022-08-21T03:56:35;98967.56;;;19.65;59.56
50636;BME280;36598;46.054;11.130;2022-08-21T03:59:00;98975.31;;;19.70;59.43
50636;BME280;36598;46.054;11.130;2022-08-21T04:01:27;98977.06;;;19.43;60.08
50636;BME280;36598;46.054;11.130;2022-08-21T04:03:52;98980.41;;;18.94;61.53
50636;BME280;36598;46.054;11.130;2022-08-21T04:06:18;98976.59;;;19.45;60.20
50636;BME280;36598;46.054;11.130;2022-08-21T04:08:43;98976.53;;;19.15;61.06
50636;BME280;36598;46.054;11.130;2022-08-21T04:11:08;98971.91;;;19.27;60.79
50636;BME280;36598;46.054;11.130;2022-08-21T04:13:35;98972.97;;;19.30;60.26
50636;BME280;36598;46.054;11.130;2022-08-21T04:16:00;98980.59;;;19.53;60.00
50636;BME280;36598;46.054;11.130;2022-08-21T04:18:26;98973.94;;;19.65;59.74
50636;BME280;36598;46.054;11.130;2022-08-21T04:20:51;98973.28;;;19.70;59.59
50636;BME280;36598;46.054;11.130;2022-08-21T04:23:18;98985.91;;;19.51;59.55
50636;BME280;36598;46.054;11.130;2022-08-21T04:25:43;98981.41;;;19.68;59.23
50636;BME280;36598;46.054;11.130;2022-08-21T04:28:09;98990.31;;;19.43;59.30
50636;BME280;36598;46.054;11.130;2022-08-21T04:30:34;98980.19;;;19.60;59.09
50636;BME280;36598;46.054;11.130;2022-08-21T04:33:00;98988.09;;;19.32;59.05
50636;BME280;36598;46.054;11.130;2022-08-21T04:35:26;98985.91;;;19.51;58.99
50636;BME280;36598;46.054;11.130;2022-08-21T04:37:52;98984.88;;;19.63;58.50
50636;BME280;36598;46.054;11.130;2022-08-21T04:40:18;98985.47;;;19.67;58.51
50636;BME280;36598;46.054;11.130;2022-08-21T04:42:45;98994.50;;;19.47;59.18
50636;BME280;36598;46.054;11.130;2022-08-21T04:45:18;98994.63;;;19.53;59.22
50636;BME280;36598;46.054;11.130;2022-08-21T04:47:46;98987.25;;;19.41;60.18
50636;BME280;36598;46.054;11.130;2022-08-21T04:50:11;98993.88;;;19.67;59.61
50636;BME280;36598;46.054;11.130;2022-08-21T04:52:36;98993.44;;;19.60;59.90
50636;BME280;36598;46.054;11.130;2022-08-21T04:55:02;99004.28;;;19.52;59.60
50636;BME280;36598;46.054;11.130;2022-08-21T04:57:28;99004.84;;;19.41;59.54
50636;BME280;36598;46.054;11.130;2022-08-21T04:59:53;99011.50;;;19.44;59.86
50636;BME280;36598;46.054;11.130;2022-08-21T05:02:18;99006.09;;;19.40;59.18
50636;BME280;36598;46.054;11.130;2022-08-21T05:04:49;99007.03;;;19.61;57.93
50636;BME280;36598;46.054;11.130;2022-08-21T05:07:16;99005.03;;;19.62;58.43
50636;BME280;36598;46.054;11.130;2022-08-21T05:09:44;99004.16;;;19.70;57.72
50636;BME280;36598;46.054;11.130;2022-08-21T05:12:09;99012.19;;;19.63;57.70
50636;BME280;36598;46.054;11.130;2022-08-21T05:14:35;99005.13;;;19.67;58.17
50636;BME280;36598;46.054;11.130;2022-08-21T05:17:00;99015.75;;;19.63;57.54
50636;BME280;36598;46.054;11.130;2022-08-21T05:19:26;99002.00;;;19.65;57.05
50636;BME280;36598;46.054;11.130;2022-08-21T05:21:51;99014.38;;;19.59;57.23
50636;BME280;36598;46.054;11.130;2022-08-21T05:24:16;99001.88;;;19.60;56.92
50636;BME280;36598;46.054;11.130;2022-08-21T05:26:42;99014.63;;;19.70;56.44
50636;BME280;36598;46.054;11.130;2022-08-21T05:29:08;99016.94;;;19.71;56.17
50636;BME280;36598;46.054;11.130;2022-08-21T05:31:33;99003.75;;;19.63;56.54
50636;BME280;36598;46.054;11.130;2022-08-21T05:33:59;99005.63;;;19.81;55.13
50636;BME280;36598;46.054;11.130;2022-08-21T05:36:24;98999.13;;;19.74;55.78
50636;BME280;36598;46.054;11.130;2022-08-21T05:38:49;99005.78;;;19.77;55.49
50636;BME280;36598;46.054;11.130;2022-08-21T05:41:15;99014.94;;;20.01;55.41
50636;BME280;36598;46.054;11.130;2022-08-21T05:43:40;99005.34;;;19.79;56.08
50636;BME280;36598;46.054;11.130;2022-08-21T05:46:06;99004.97;;;20.00;55.09
50636;BME280;36598;46.054;11.130;2022-08-21T05:48:32;99004.09;;;20.09;55.31
50636;BME280;36598;46.054;11.130;2022-08-21T05:50:57;99005.25;;;19.88;55.29
50636;BME280;36598;46.054;11.130;2022-08-21T05:53:23;99003.56;;;19.66;56.04
50636;BME280;36598;46.054;11.130;2022-08-21T05:55:49;99005.22;;;19.73;55.83
50636;BME280;36598;46.054;11.130;2022-08-21T05:58:15;99006.56;;;19.77;55.61
50636;BME280;36598;46.054;11.130;2022-08-21T06:00:41;99005.88;;;19.83;55.70
50636;BME280;36598;46.054;11.130;2022-08-21T06:03:10;99003.75;;;20.37;54.83
50636;BME280;36598;46.054;11.130;2022-08-21T06:05:36;99010.34;;;21.60;51.29
50636;BME280;36598;46.054;11.130;2022-08-21T06:08:01;99005.69;;;22.35;48.94
50636;BME280;36598;46.054;11.130;2022-08-21T06:10:27;99002.44;;;22.85;47.57
50636;BME280;36598;46.054;11.130;2022-08-21T06:12:52;98998.25;;;23.12;47.23
50636;BME280;36598;46.054;11.130;2022-08-21T06:15:18;98992.38;;;23.15;46.72
50636;BME280;36598;46.054;11.130;2022-08-21T06:17:43;98996.53;;;23.26;46.48
50636;BME280;36598;46.054;11.130;2022-08-21T06:20:09;98990.84;;;23.20;46.02
50636;BME280;36598;46.054;11.130;2022-08-21T06:22:34;98991.22;;;23.50;46.16
50636;BME280;36598;46.054;11.130;2022-08-21T06:24:59;98991.84;;;23.82;45.74
50636;BME280;36598;46.054;11.130;2022-08-21T06:27:25;98993.38;;;23.78;44.97
50636;BME280;36598;46.054;11.130;2022-08-21T06:29:50;98996.50;;;24.69;43.36
50636;BME280;36598;46.054;11.130;2022-08-21T06:32:15;98989.78;;;24.84;42.48
50636;BME280;36598;46.054;11.130;2022-08-21T06:34:41;98996.78;;;24.60;42.90
50636;BME280;36598;46.054;11.130;2022-08-21T06:37:06;98983.78;;;25.21;41.88
50636;BME280;36598;46.054;11.130;2022-08-21T06:39:32;98990.00;;;25.08;41.90
50636;BME280;36598;46.054;11.130;2022-08-21T06:41:57;98990.16;;;25.33;41.54
50636;BME280;36598;46.054;11.130;2022-08-21T06:44:22;98989.19;;;25.71;41.06
50636;BME280;36598;46.054;11.130;2022-08-21T06:46:48;98995.88;;;25.80;40.57
50636;BME280;36598;46.054;11.130;2022-08-21T06:49:13;98987.56;;;25.35;41.37
50636;BME280;36598;46.054;11.130;2022-08-21T06:51:39;98990.09;;;25.91;40.45
50636;BME280;36598;46.054;11.130;2022-08-21T06:54:04;98988.72;;;26.03;40.58
50636;BME280;36598;46.054;11.130;2022-08-21T06:56:29;98987.22;;;25.55;40.71
50636;BME280;36598;46.054;11.130;2022-08-21T06:58:55;98982.22;;;26.14;40.12
50636;BME280;36598;46.054;11.130;2022-08-21T07:01:21;98982.50;;;26.40;39.95
50636;BME280;36598;46.054;11.130;2022-08-21T07:03:48;98983.28;;;26.71;39.04
50636;BME280;36598;46.054;11.130;2022-08-21T07:06:14;98982.78;;;26.37;39.25
50636;BME280;36598;46.054;11.130;2022-08-21T07:08:40;98978.41;;;25.64;40.28
50636;BME280;36598;46.054;11.130;2022-08-21T07:11:09;98991.97;;;26.18;39.80
50636;BME280;36598;46.054;11.130;2022-08-21T07:13:36;98980.03;;;26.61;38.85
50636;BME280;36598;46.054;11.130;2022-08-21T07:16:01;98977.81;;;27.22;38.08
50636;BME280;36598;46.054;11.130;2022-08-21T07:18:26;98980.00;;;27.35;37.99
50636;BME280;36598;46.054;11.130;2022-08-21T07:20:52;98975.38;;;26.34;38.72
50636;BME280;36598;46.054;11.130;2022-08-21T07:23:20;98969.38;;;27.35;37.19
50636;BME280;36598;46.054;11.130;2022-08-21T07:25:47;98969.72;;;27.51;36.92
50636;BME280;36598;46.054;11.130;2022-08-21T07:28:12;98971.97;;;27.14;37.74
50636;BME280;36598;46.054;11.130;2022-08-21T07:30:38;98966.31;;;27.52;37.52
50636;BME280;36598;46.054;11.130;2022-08-21T07:33:03;98965.88;;;27.67;36.51
50636;BME280;36598;46.054;11.130;2022-08-21T07:35:28;98974.44;;;28.18;36.94
50636;BME280;36598;46.054;11.130;2022-08-21T07:37:53;98966.94;;;28.47;36.51
50636;BME280;36598;46.054;11.130;2022-08-21T07:40:19;98967.97;;;28.63;35.52
50636;BME280;36598;46.054;11.130;2022-08-21T07:42:45;98959.75;;;28.86;35.08
50636;BME280;36598;46.054;11.130;2022-08-21T07:45:11;98957.38;;;29.30;34.65
50636;BME280;36598;46.054;11.130;2022-08-21T07:47:36;98952.59;;;29.45;34.21
50636;BME280;36598;46.054;11.130;2022-08-21T07:50:03;98946.41;;;29.20;35.19
50636;BME280;36598;46.054;11.130;2022-08-21T07:52:29;98953.06;;;29.84;33.16
50636;BME280;36598;46.054;11.130;2022-08-21T07:54:54;98938.66;;;29.68;33.65
50636;BME280;36598;46.054;11.130;2022-08-21T07:57:19;98938.19;;;29.99;33.27
50636;BME280;36598;46.054;11.130;2022-08-21T07:59:45;98927.66;;;29.93;32.98
50636;BME280;36598;46.054;11.130;2022-08-21T08:02:10;98928.34;;;29.65;34.22
50636;BME280;36598;46.054;11.130;2022-08-21T08:04:46;98928.53;;;30.23;33.16
50636;BME280;36598;46.054;11.130;2022-08-21T08:07:11;98928.94;;;30.27;33.39
50636;BME280;36598;46.054;11.130;2022-08-21T08:09:36;98924.91;;;30.22;33.21
50636;BME280;36598;46.054;11.130;2022-08-21T08:12:01;98917.81;;;30.36;33.46
50636;BME280;36598;46.054;11.130;2022-08-21T08:14:27;98908.00;;;30.53;32.31
50636;BME280;36598;46.054;11.130;2022-08-21T08:16:52;98908.94;;;30.06;32.46
50636;BME280;36598;46.054;11.130;2022-08-21T08:19:17;98906.16;;;29.92;32.75
50636;BME280;36598;46.054;11.130;2022-08-21T08:21:43;98896.47;;;29.06;33.80
50636;BME280;36598;46.054;11.130;2022-08-21T08:24:08;98901.72;;;29.02;34.13
50636;BME280;36598;46.054;11.130;2022-08-21T08:26:33;98886.75;;;28.62;34.51
50636;BME280;36598;46.054;11.130;2022-08-21T08:28:58;98880.25;;;28.88;34.26
50636;BME280;36598;46.054;11.130;2022-08-21T08:31:24;98873.00;;;29.13;34.11
50636;BME280;36598;46.054;11.130;2022-08-21T08:33:49;98872.50;;;29.70;34.24
50636;BME280;36598;46.054;11.130;2022-08-21T08:36:15;98871.53;;;29.67;33.60
50636;BME280;36598;46.054;11.130;2022-08-21T08:38:40;98857.03;;;30.57;32.71
50636;BME280;36598;46.054;11.130;2022-08-21T08:41:19;98867.69;;;30.85;32.38
50636;BME280;36598;46.054;11.130;2022-08-21T08:43:50;98858.00;;;30.88;32.71
50636;BME280;36598;46.054;11.130;2022-08-21T08:46:18;98857.63;;;31.35;32.11
50636;BME280;36598;46.054;11.130;2022-08-21T08:49:18;98852.44;;;31.34;30.60
50636;BME280;36598;46.054;11.130;2022-08-21T08:51:59;98848.50;;;30.64;31.83
50636;BME280;36598;46.054;11.130;2022-08-21T08:54:27;98856.56;;;30.74;31.67
50636;BME280;36598;46.054;11.130;2022-08-21T08:56:56;98848.16;;;31.12;31.64
50636;BME280;36598;46.054;11.130;2022-08-21T08:59:25;98839.47;;;30.45;31.55
50636;BME280;36598;46.054;11.130;2022-08-21T09:01:52;98836.69;;;30.60;32.06
50636;BME280;36598;46.054;11.130;2022-08-21T09:04:20;98835.41;;;31.05;32.14
50636;BME280;36598;46.054;11.130;2022-08-21T09:09:35;98825.78;;;30.87;31.86
50636;BME280;36598;46.054;11.130;2022-08-21T09:12:25;98824.06;;;29.36;33.27
50636;BME280;36598;46.054;11.130;2022-08-21T09:14:58;98824.50;;;30.60;32.92
50636;BME280;36598;46.054;11.130;2022-08-21T09:25:19;98803.41;;;31.07;30.72
50636;BME280;36598;46.054;11.130;2022-08-21T09:27:46;98798.09;;;31.18;30.87
50636;BME280;36598;46.054;11.130;2022-08-21T09:30:11;98797.44;;;30.53;31.35
50636;BME280;36598;46.054;11.130;2022-08-21T09:32:38;98790.22;;;29.95;32.33
50636;BME280;36598;46.054;11.130;2022-08-21T09:35:22;98791.75;;;30.97;31.53
50636;BME280;36598;46.054;11.130;2022-08-21T09:37:52;98781.63;;;30.88;31.39
50636;BME280;36598;46.054;11.130;2022-08-21T09:45:26;98763.38;;;30.99;30.24
50636;BME280;36598;46.054;11.130;2022-08-21T09:47:52;98759.69;;;31.35;30.49
50636;BME280;36598;46.054;11.130;2022-08-21T09:50:24;98761.56;;;31.63;29.53
50636;BME280;36598;46.054;11.130;2022-08-21T09:52:51;98762.34;;;31.56;29.02
50636;BME280;36598;46.054;11.130;2022-08-21T09:55:24;98743.44;;;31.30;27.91
50636;BME280;36598;46.054;11.130;2022-08-21T09:58:10;98747.28;;;31.63;27.20
50636;BME280;36598;46.054;11.130;2022-08-21T10:00:35;98734.47;;;32.02;27.34
50636;BME280;36598;46.054;11.130;2022-08-21T10:06:00;98731.22;;;32.13;26.22
50636;BME280;36598;46.054;11.130;2022-08-21T10:08:30;98725.50;;;32.13;26.68
50636;BME280;36598;46.054;11.130;2022-08-21T10:10:56;98723.44;;;31.91;24.98
50636;BME280;36598;46.054;11.130;2022-08-21T10:16:20;98715.53;;;32.30;26.42
50636;BME280;36598;46.054;11.130;2022-08-21T10:18:56;98712.69;;;32.14;26.14
50636;BME280;36598;46.054;11.130;2022-08-21T10:21:27;98705.91;;;31.87;26.09
50636;BME280;36598;46.054;11.130;2022-08-21T10:31:46;98688.19;;;32.36;26.49
50636;BME280;36598;46.054;11.130;2022-08-21T10:37:07;98689.44;;;32.10;25.26
50636;BME280;36598;46.054;11.130;2022-08-21T10:39:42;98684.31;;;32.09;25.40
50636;BME280;36598;46.054;11.130;2022-08-21T10:42:17;98687.50;;;32.21;25.47
50636;BME280;36598;46.054;11.130;2022-08-21T10:44:53;98678.56;;;32.16;25.02
50636;BME280;36598;46.054;11.130;2022-08-21T10:57:50;98662.22;;;31.79;25.37
50636;BME280;36598;46.054;11.130;2022-08-21T11:00:20;98661.41;;;32.09;25.35
50636;BME280;36598;46.054;11.130;2022-08-21T11:05:24;98652.63;;;32.07;24.76
50636;BME280;36598;46.054;11.130;2022-08-21T11:10:19;98649.97;;;32.09;24.70
50636;BME280;36598;46.054;11.130;2022-08-21T11:12:53;98640.38;;;32.22;24.22
50636;BME280;36598;46.054;11.130;2022-08-21T11:15:31;98642.97;;;32.43;24.67
50636;BME280;36598;46.054;11.130;2022-08-21T11:20:42;98623.84;;;32.78;21.34
50636;BME280;36598;46.054;11.130;2022-08-21T11:23:19;98619.91;;;32.65;21.26
50636;BME280;36598;46.054;11.130;2022-08-21T11:25:47;98616.81;;;32.71;19.66
50636;BME280;36598;46.054;11.130;2022-08-21T11:28:16;98626.47;;;32.83;21.12
50636;BME280;36598;46.054;11.130;2022-08-21T11:35:50;98611.13;;;32.96;21.23
50636;BME280;36598;46.054;11.130;2022-08-21T11:51:07;98583.69;;;33.10;21.47
50636;BME280;36598;46.054;11.130;2022-08-21T11:53:46;98585.63;;;33.08;21.19
50636;BME280;36598;46.054;11.130;2022-08-21T11:59:16;98578.94;;;33.05;19.41
50636;BME280;36598;46.054;11.130;2022-08-21T12:01:46;98567.09;;;33.26;20.13
50636;BME280;36598;46.054;11.130;2022-08-21T12:06:41;98558.84;;;33.30;19.34
50636;BME280;36598;46.054;11.130;2022-08-21T12:09:08;98564.09;;;33.24;19.55
50636;BME280;36598;46.054;11.130;2022-08-21T12:11:45;98561.47;;;33.36;18.85
50636;BME280;36598;46.054;11.130;2022-08-21T12:14:12;98555.28;;;33.22;19.98
50636;BME280;36598;46.054;11.130;2022-08-21T12:16:47;98555.31;;;33.39;19.99
50636;BME280;36598;46.054;11.130;2022-08-21T12:21:49;98550.09;;;33.28;19.73
50636;BME280;36598;46.054;11.130;2022-08-21T12:24:16;98536.75;;;33.23;19.63
50636;BME280;36598;46.054;11.130;2022-08-21T12:26:52;98539.94;;;33.27;19.74
50636;BME280;36598;46.054;11.130;2022-08-21T12:34:23;98527.22;;;33.21;19.21
50636;BME280;36598;46.054;11.130;2022-08-21T12:36:53;98526.41;;;33.28;19.51
50636;BME280;36598;46.054;11.130;2022-08-21T12:39:27;98515.13;;;33.47;20.02
50636;BME280;36598;46.054;11.130;2022-08-21T12:44:41;98509.28;;;33.37;19.26
50636;BME280;36598;46.054;11.130;2022-08-21T12:50:04;98506.56;;;33.05;19.48
50636;BME280;36598;46.054;11.130;2022-08-21T12:52:34;98496.03;;;33.07;18.48
50636;BME280;36598;46.054;11.130;2022-08-21T12:55:00;98499.72;;;33.18;19.11
50636;BME280;36598;46.054;11.130;2022-08-21T12:57:28;98493.50;;;32.94;18.25
50636;BME280;36598;46.054;11.130;2022-08-21T12:59:57;98488.31;;;32.93;18.31
50636;BME280;36598;46.054;11.130;2022-08-21T13:02:26;98488.50;;;32.95;18.75
50636;BME280;36598;46.054;11.130;2022-08-21T13:04:53;98489.97;;;33.03;18.17
50636;BME280;36598;46.054;11.130;2022-08-21T13:07:42;98482.38;;;33.15;18.56
50636;BME280;36598;46.054;11.130;2022-08-21T13:12:46;98474.34;;;33.14;18.60
50636;BME280;36598;46.054;11.130;2022-08-21T13:15:11;98470.38;;;33.27;17.45
50636;BME280;36598;46.054;11.130;2022-08-21T13:17:39;98468.53;;;33.22;17.79
50636;BME280;36598;46.054;11.130;2022-08-21T13:20:09;98465.66;;;33.39;19.26
50636;BME280;36598;46.054;11.130;2022-08-21T13:22:43;98464.66;;;33.44;19.96
50636;BME280;36598;46.054;11.130;2022-08-21T13:25:10;98459.69;;;33.45;18.21
50636;BME280;36598;46.054;11.130;2022-08-21T13:27:36;98463.22;;;33.53;17.54
50636;BME280;36598;46.054;11.130;2022-08-21T13:32:26;98448.88;;;33.53;17.42
50636;BME280;36598;46.054;11.130;2022-08-21T13:34:53;98449.34;;;33.49;17.96
50636;BME280;36598;46.054;11.130;2022-08-21T13:37:18;98446.94;;;33.38;18.49
50636;BME280;36598;46.054;11.130;2022-08-21T13:39:48;98442.25;;;33.33;18.04
50636;BME280;36598;46.054;11.130;2022-08-21T13:42:14;98436.16;;;33.29;16.76
50636;BME280;36598;46.054;11.130;2022-08-21T13:44:41;98439.59;;;33.27;17.33
50636;BME280;36598;46.054;11.130;2022-08-21T13:47:06;98430.84;;;33.25;17.53
50636;BME280;36598;46.054;11.130;2022-08-21T13:49:38;98433.47;;;33.13;17.29
50636;BME280;36598;46.054;11.130;2022-08-21T13:52:05;98435.09;;;33.24;17.66
50636;BME280;36598;46.054;11.130;2022-08-21T13:54:40;98430.25;;;33.27;17.12
50636;BME280;36598;46.054;11.130;2022-08-21T14:02:39;98414.25;;;33.24;17.77
50636;BME280;36598;46.054;11.130;2022-08-21T14:05:05;98414.84;;;33.22;17.71
50636;BME280;36598;46.054;11.130;2022-08-21T14:07:36;98415.91;;;33.27;17.21
50636;BME280;36598;46.054;11.130;2022-08-21T14:10:11;98412.69;;;33.40;18.26
50636;BME280;36598;46.054;11.130;2022-08-21T14:12:41;98402.44;;;33.37;17.53
50636;BME280;36598;46.054;11.130;2022-08-21T14:15:07;98406.00;;;33.28;17.10
50636;BME280;36598;46.054;11.130;2022-08-21T14:17:36;98405.13;;;33.35;18.35
50636;BME280;36598;46.054;11.130;2022-08-21T14:20:02;98406.50;;;33.17;17.04
50636;BME280;36598;46.054;11.130;2022-08-21T14:25:07;98397.19;;;33.43;17.50
50636;BME280;36598;46.054;11.130;2022-08-21T14:27:33;98394.69;;;33.30;17.20
50636;BME280;36598;46.054;11.130;2022-08-21T14:30:00;98401.44;;;33.25;17.19
50636;BME280;36598;46.054;11.130;2022-08-21T14:32:34;98388.94;;;33.30;17.06